Data for 02/18/2018

Time Sea-Level Adjusted Pressure Absolute Pressure Temperature Relative Humidity Dew Point   
(mb) (inHg) (mb) (inHg) (C) (F) (%) (C) (F)
00:05 1000 29.53 830 24.51 1.8 35.3 57 -5.8 21.6
00:10 1001 29.56 830 24.51 1.9 35.4 54 -6.4 20.5
00:15 1000 29.53 830 24.51 2 35.6 53 -6.5 20.3
00:20 1000 29.53 830 24.51 2 35.6 52 -6.7 19.9
00:25 1001 29.56 830 24.51 2 35.6 53 -6.5 20.3
00:30 1001 29.56 830 24.51 1.9 35.5 52 -7 19.4
00:35 1001 29.56 830 24.51 2 35.6 53 -6.7 20
00:40 1001 29.56 830 24.51 1.9 35.4 52 -7 19.3
00:45 1001 29.56 830 24.51 2 35.6 51 -7 19.3
00:50 1001 29.56 830 24.51 2 35.5 52 -6.8 19.8
00:55 1001 29.56 830 24.51 1.8 35.3 55 -6.2 20.9
01:00 1001 29.56 830 24.51 1.5 34.7 59 -5.7 21.7
01:05 1001 29.56 830 24.51 1.2 34.1 61 -5.5 22.1
01:10 1001 29.56 830 24.51 0.9 33.6 64 -5.2 22.7
01:15 1001 29.56 830 24.51 0.4 32.7 73 -3.9 25.1
01:20 1001 29.56 830 24.51 -0.8 30.5 78 -4.1 24.6
01:25 1001 29.56 830 24.51 -1.8 28.7 79 -5 23
01:30 1001 29.56 830 24.51 -2.5 27.5 79 -5.6 22
01:35 1001 29.56 831 24.54 -2.9 26.9 78 -6.2 20.8
01:40 1001 29.56 831 24.54 -3.3 26.1 77 -6.8 19.8
01:45 1002 29.59 831 24.54 -3.8 25.1 77 -7.3 18.8
01:50 1002 29.59 831 24.54 -4.4 24.2 78 -7.7 18.2
01:55 1002 29.59 831 24.54 -4.5 23.8 78 -7.8 18
02:00 1002 29.59 831 24.54 -4.9 23.3 78 -8.1 17.5
02:05 1002 29.59 831 24.54 -5.2 22.6 79 -8.2 17.2
02:10 1002 29.59 831 24.54 -5.4 22.3 80 -8.4 16.9
02:15 1002 29.59 832 24.57 -5.6 21.9 80 -8.6 16.5
02:20 1002 29.59 832 24.57 -5.9 21.4 80 -8.7 16.3
02:25 1003 29.62 832 24.57 -6 21.2 80 -9 15.9
02:30 1003 29.62 832 24.57 -6.1 21 79 -9.1 15.5
02:35 1003 29.62 832 24.57 -6.2 20.9 79 -9.3 15.2
02:40 1003 29.62 832 24.57 -6.4 20.5 78 -9.7 14.6
02:45 1003 29.62 832 24.57 -6.7 19.9 77 -10.1 13.8
02:50 1003 29.62 832 24.57 -7 19.4 78 -10.3 13.5
02:55 1003 29.62 832 24.57 -7.2 19.1 79 -10.2 13.7
03:00 1003 29.62 832 24.57 -7.2 19 81 -10 14
03:05 1003 29.62 832 24.57 -7.3 18.8 83 -9.8 14.4
03:10 1003 29.62 832 24.57 -7.8 18 82 -10.3 13.4
03:15 1003 29.62 833 24.6 -8.5 16.7 83 -11 12.3
03:20 1004 29.65 833 24.6 -8.9 15.9 83 -11.3 11.7
03:25 1004 29.65 833 24.6 -9.3 15.3 83 -11.7 11
03:30 1004 29.65 833 24.6 -9.6 14.7 84 -11.8 10.8
03:35 1004 29.65 833 24.6 -9.8 14.4 83 -12.1 10.2
03:40 1004 29.65 833 24.6 -10.1 13.9 84 -12.3 9.8
03:45 1004 29.65 833 24.6 -10.2 13.6 85 -12.4 9.8
03:50 1003 29.62 833 24.6 -10.4 13.3 85 -12.4 9.6
03:55 1004 29.65 833 24.6 -10.5 13.1 85 -12.6 9.3
04:00 1004 29.65 833 24.6 -10.5 13.1 85 -12.6 9.3
04:05 1004 29.65 833 24.6 -10.7 12.8 85 -12.8 9
04:10 1004 29.65 833 24.6 -10.8 12.6 84 -13 8.7
04:15 1004 29.65 833 24.6 -11 12.2 84 -13.1 8.3
04:20 1004 29.65 833 24.6 -11 12.3 85 -13 8.5
04:25 1004 29.65 834 24.63 -10.9 12.4 84 -13.1 8.4
04:30 1004 29.65 834 24.63 -10.9 12.4 84 -13 8.6
04:35 1004 29.65 834 24.63 -10.8 12.6 85 -12.9 8.8
04:40 1005 29.68 834 24.63 -10.7 12.7 84 -12.9 8.8
04:45 1004 29.65 834 24.63 -10.8 12.5 84 -13 8.5
04:50 1004 29.65 834 24.63 -11 12.1 83 -13.3 8
04:55 1005 29.68 834 24.63 -11.3 11.6 82 -13.8 7.2
05:00 1005 29.68 834 24.63 -11.7 11 82 -14.1 6.6
05:05 1005 29.68 834 24.63 -12.1 10.3 81 -14.7 5.5
05:10 1005 29.68 834 24.63 -12.4 9.7 82 -14.8 5.3
05:15 1005 29.68 834 24.63 -12.3 9.8 82 -14.8 5.4
05:20 1005 29.68 834 24.63 -12.3 9.8 83 -14.7 5.6
05:25 1005 29.68 834 24.63 -12.3 9.9 82 -14.8 5.4
05:30 1005 29.68 834 24.63 -12.4 9.7 82 -14.8 5.3
05:35 1005 29.68 834 24.63 -12.5 9.5 80 -15.2 4.7
05:40 1005 29.68 834 24.63 -12.7 9.1 82 -15.2 4.6
05:45 1005 29.68 834 24.63 -12.7 9.1 82 -15.3 4.5
05:50 1005 29.68 834 24.63 -12.7 9.1 81 -15.4 4.4
05:55 1005 29.68 834 24.63 -12.8 9 82 -15.3 4.4
06:00 1005 29.68 834 24.63 -12.8 8.9 82 -15.4 4.3
06:05 1005 29.68 834 24.63 -13 8.6 81 -15.7 3.8
06:10 1005 29.68 834 24.63 -13.2 8.3 82 -15.6 3.8
06:15 1005 29.68 834 24.63 -13.1 8.4 82 -15.6 4
06:20 1005 29.68 834 24.63 -13.1 8.4 82 -15.6 3.9
06:25 1005 29.68 834 24.63 -13.2 8.3 83 -15.5 4.1
06:30 1005 29.68 834 24.63 -13.1 8.4 82 -15.6 3.9
06:35 1005 29.68 834 24.63 -13.1 8.3 81 -15.7 3.7
06:40 1005 29.68 834 24.63 -13.2 8.2 82 -15.7 3.7
06:45 1005 29.68 834 24.63 -13.2 8.3 81 -15.8 3.6
06:50 1005 29.68 834 24.63 -13.2 8.3 80 -15.9 3.4
06:55 1005 29.68 834 24.63 -13.5 7.7 81 -16.1 3
07:00 1005 29.68 834 24.63 -13.7 7.4 82 -16.1 3
07:05 1005 29.68 835 24.66 -13.6 7.5 81 -16.1 2.9
07:10 1005 29.68 835 24.66 -13.6 7.6 81 -16.2 2.9
07:15 1006 29.71 835 24.66 -13.5 7.7 80 -16.2 2.8
07:20 1006 29.71 835 24.66 -13.5 7.6 82 -15.9 3.4
07:25 1006 29.71 835 24.66 -13.4 7.8 81 -16.1 3.1
07:30 1006 29.71 835 24.66 -13.7 7.4 81 -16.3 2.6
07:35 1006 29.71 835 24.66 -13.8 7.2 79 -16.6 2.1
07:40 1006 29.71 835 24.66 -14 6.8 79 -16.9 1.7
07:45 1006 29.71 836 24.69 -14.1 6.6 79 -17 1.4
07:50 1007 29.74 836 24.69 -14.3 6.4 80 -16.9 1.5
07:55 1007 29.74 836 24.69 -14.2 6.4 81 -16.8 1.8
08:00 1007 29.74 836 24.69 -14.1 6.6 78 -17.2 1.1
08:05 1007 29.74 836 24.69 -14.1 6.7 76 -17.5 0.5
08:10 1007 29.74 836 24.69 -14.4 6.1 76 -17.7 0.2
08:15 1007 29.74 836 24.69 -14.6 5.8 79 -17.5 0.4
08:20 1007 29.74 836 24.69 -14.7 5.6 78 -17.7 0.1
08:25 1007 29.74 836 24.69 -14.8 5.4 77 -17.9 -0.2
08:30 1007 29.74 836 24.69 -14.8 5.3 77 -18 -0.3
08:35 1007 29.74 836 24.69 -14.9 5.2 77 -18.2 -0.7
08:40 1007 29.74 836 24.69 -15 5 79 -17.9 -0.2
08:45 1007 29.74 836 24.69 -15.1 4.8 80 -17.8 -0
08:50 1007 29.74 836 24.69 -15.1 4.8 80 -17.8 0
08:55 1007 29.74 836 24.69 -15.1 4.9 79 -17.9 -0.2
09:00 1007 29.74 836 24.69 -15.1 4.8 79 -18 -0.4
09:05 1007 29.74 837 24.72 -15 5.1 77 -18.1 -0.6
09:10 1007 29.74 837 24.72 -14.9 5.2 77 -18.1 -0.6
09:15 1007 29.74 837 24.72 -14.7 5.6 75 -18.1 -0.6
09:20 1008 29.77 837 24.72 -14.6 5.7 75 -18.1 -0.6
09:25 1008 29.77 837 24.72 -14.6 5.7 72 -18.6 -1.4
09:30 1008 29.77 837 24.72 -14.6 5.7 74 -18.3 -1
09:35 1008 29.77 837 24.72 -14.4 6 72 -18.5 -1.3
09:40 1008 29.77 837 24.72 -14.3 6.2 70 -18.7 -1.7
09:45 1008 29.77 837 24.72 -14.4 6 68 -19 -2.3
09:50 1008 29.77 837 24.72 -14.5 5.9 69 -19 -2.2
09:55 1008 29.77 837 24.72 -14.6 5.7 71 -18.8 -1.8
10:00 1008 29.77 837 24.72 -14.5 5.9 69 -19 -2.1
10:05 1008 29.77 837 24.72 -14.5 6 69 -19 -2.2
10:10 1008 29.77 837 24.72 -14.4 6.1 67 -19.3 -2.7
10:15 1008 29.77 837 24.72 -14.3 6.2 68 -19.1 -2.3
10:20 1008 29.77 837 24.72 -14.3 6.2 67 -19.2 -2.5
10:25 1008 29.77 837 24.72 -14.2 6.5 67 -19.1 -2.4
10:30 1008 29.77 837 24.72 -14.2 6.5 67 -19 -2.2
10:35 1008 29.77 837 24.72 -13.9 7 66 -18.9 -1.9
10:40 1008 29.77 837 24.72 -13.8 7.3 63 -19.3 -2.7
10:45 1008 29.77 837 24.72 -13.9 7 65 -19.1 -2.4
10:50 1008 29.77 837 24.72 -13.8 7.3 65 -19 -2.1
10:55 1008 29.77 837 24.72 -13.6 7.5 66 -18.7 -1.7
11:00 1008 29.77 837 24.72 -13.9 7.1 66 -18.9 -2
11:05 1008 29.77 837 24.72 -14 6.8 65 -19.2 -2.5
11:10 1008 29.77 837 24.72 -14.1 6.6 64 -19.4 -3
11:15 1008 29.77 837 24.72 -14.2 6.4 65 -19.4 -2.9
11:20 1008 29.77 837 24.72 -14.1 6.6 65 -19.4 -2.9
11:25 1008 29.77 837 24.72 -14 6.9 65 -19.3 -2.7
11:30 1008 29.77 837 24.72 -13.7 7.4 64 -19 -2.3
11:35 1008 29.77 837 24.72 -13.5 7.8 63 -19 -2.2
11:40 1008 29.77 837 24.72 -13 8.6 61 -19 -2.2
11:45 1008 29.77 837 24.72 -12.9 8.7 61 -19 -2.2
11:50 1008 29.77 837 24.72 -12.8 8.9 65 -18 -0.5
11:55 1008 29.77 837 24.72 -12.2 10.1 54 -19.7 -3.5
12:00 1008 29.77 837 24.72 -12.4 9.6 57 -19.4 -2.9
12:05 1008 29.77 837 24.72 -12.3 9.9 54 -19.8 -3.7
12:10 1008 29.77 837 24.72 -12.4 9.6 53 -20.2 -4.3
12:15 1008 29.77 837 24.72 -12.7 9.2 55 -20.1 -4.1
12:20 1008 29.77 837 24.72 -12.8 9 56 -19.9 -3.7
12:25 1008 29.77 837 24.72 -12.5 9.6 56 -19.4 -3
12:30 1008 29.77 837 24.72 -12.7 9.2 57 -19.5 -3
12:35 1008 29.77 837 24.72 -12.6 9.3 57 -19.5 -3.1
12:40 1008 29.77 837 24.72 -12.5 9.5 58 -19.2 -2.5
12:45 1008 29.77 837 24.72 -12.5 9.5 58 -19.1 -2.4
12:50 1008 29.77 837 24.72 -12.4 9.7 59 -18.8 -1.9
12:55 1008 29.77 837 24.72 -12.1 10.2 55 -19.4 -2.9
13:00 1008 29.77 837 24.72 -12.6 9.3 57 -19.4 -3
13:05 1007 29.74 837 24.72 -12.8 9 57 -19.5 -3.1
13:10 1007 29.74 837 24.72 -13.1 8.3 57 -20 -3.9
13:15 1007 29.74 837 24.72 -13.4 7.9 60 -19.6 -3.4
13:20 1007 29.74 837 24.72 -13.2 8.3 58 -19.8 -3.7
13:25 1007 29.74 837 24.72 -13.1 8.5 56 -20 -4.1
13:30 1007 29.74 836 24.69 -13.2 8.3 56 -20.3 -4.5
13:35 1007 29.74 836 24.69 -13.1 8.5 58 -19.7 -3.4
13:40 1007 29.74 836 24.69 -13.1 8.5 58 -19.6 -3.4
13:45 1007 29.74 836 24.69 -13 8.6 58 -19.6 -3.2
13:50 1007 29.74 837 24.72 -13.3 8 61 -19.4 -3
13:55 1008 29.77 837 24.72 -13.6 7.5 62 -19.4 -3
14:00 1008 29.77 837 24.72 -13.7 7.3 63 -19.3 -2.8
14:05 1008 29.77 837 24.72 -13.7 7.3 63 -19.3 -2.7
14:10 1008 29.77 837 24.72 -13.8 7.2 61 -19.8 -3.7
14:15 1008 29.77 837 24.72 -14 6.8 62 -19.7 -3.5
14:20 1008 29.77 837 24.72 -14.1 6.6 63 -19.8 -3.6
14:25 1008 29.77 837 24.72 -14.1 6.7 64 -19.4 -2.9
14:30 1008 29.77 837 24.72 -14.1 6.6 64 -19.5 -3.1
14:35 1008 29.77 837 24.72 -14.3 6.3 65 -19.5 -3.1
14:40 1008 29.77 837 24.72 -14.3 6.2 64 -19.6 -3.4
14:45 1008 29.77 837 24.72 -14.4 6.2 65 -19.7 -3.4
14:50 1008 29.77 837 24.72 -14.5 5.9 66 -19.5 -3.1
14:55 1008 29.77 837 24.72 -14.5 5.8 64 -19.9 -3.9
15:00 1008 29.77 837 24.72 -14.7 5.5 65 -19.9 -3.7
15:05 1008 29.77 837 24.72 -14.8 5.4 65 -19.9 -3.8
15:10 1008 29.77 837 24.72 -14.7 5.5 66 -19.7 -3.5
15:15 1008 29.77 837 24.72 -14.8 5.5 67 -19.6 -3.3
15:20 1008 29.77 837 24.72 -14.8 5.4 66 -19.8 -3.6
15:25 1008 29.77 838 24.75 -15 5 67 -19.9 -3.8
15:30 1008 29.77 838 24.75 -15.1 4.9 66 -20 -4
15:35 1008 29.77 838 24.75 -15.1 4.8 68 -19.8 -3.7
15:40 1009 29.8 838 24.75 -15.1 4.8 66 -20.2 -4.3
15:45 1009 29.8 838 24.75 -15.2 4.6 66 -20.2 -4.3
15:50 1009 29.8 838 24.75 -15.3 4.5 65 -20.4 -4.7
15:55 1009 29.8 838 24.75 -15.3 4.5 66 -20.3 -4.5
16:00 1009 29.8 838 24.75 -15.3 4.5 66 -20.4 -4.7
16:05 1009 29.8 838 24.75 -15.3 4.4 66 -20.3 -4.6
16:10 1009 29.8 838 24.75 -15.4 4.3 66 -20.3 -4.5
16:15 1009 29.8 838 24.75 -15.5 4.2 67 -20.3 -4.5
16:20 1009 29.8 838 24.75 -15.5 4.1 68 -20.1 -4.2
16:25 1009 29.8 838 24.75 -15.5 4.1 69 -20 -4.1
16:30 1009 29.8 838 24.75 -15.6 3.9 70 -20 -3.9
16:35 1009 29.8 838 24.75 -15.6 3.8 69 -20.1 -4.2
16:40 1009 29.8 838 24.75 -15.7 3.7 69 -20.1 -4.2
16:45 1009 29.8 838 24.75 -15.8 3.6 71 -20 -4
16:50 1009 29.8 839 24.78 -15.9 3.4 72 -19.8 -3.7
16:55 1009 29.8 839 24.78 -15.9 3.3 72 -20 -3.9
17:00 1009 29.8 839 24.78 -16 3.2 72 -19.9 -3.8
17:05 1009 29.8 838 24.75 -16 3.1 71 -20.1 -4.2
17:10 1009 29.8 838 24.75 -16.1 3.1 72 -20 -3.9
17:15 1009 29.8 839 24.78 -16.1 3 73 -19.9 -3.8
17:20 1009 29.8 839 24.78 -16.1 2.9 73 -19.9 -3.8
17:25 1010 29.83 839 24.78 -16.2 2.9 73 -19.9 -3.8
17:30 1009 29.8 839 24.78 -16.2 2.8 73 -20.1 -4.2
17:35 1009 29.8 839 24.78 -16.3 2.7 73 -20.1 -4.1
17:40 1009 29.8 839 24.78 -16.3 2.7 72 -20.2 -4.3
17:45 1010 29.83 839 24.78 -16.3 2.7 72 -20.3 -4.5
17:50 1009 29.8 839 24.78 -16.3 2.6 69 -20.7 -5.2
17:55 1009 29.8 839 24.78 -16.4 2.5 69 -20.8 -5.5
18:00 1009 29.8 839 24.78 -16.5 2.4 69 -21 -5.8
18:05 1009 29.8 839 24.78 -16.6 2.2 68 -21.1 -6.1
18:10 1009 29.8 839 24.78 -16.6 2.1 68 -21.2 -6.2
18:15 1009 29.8 839 24.78 -16.7 2 68 -21.2 -6.2
18:20 1009 29.8 839 24.78 -16.8 1.9 68 -21.3 -6.3
18:25 1009 29.8 839 24.78 -16.8 1.8 69 -21.2 -6.2
18:30 1009 29.8 839 24.78 -16.9 1.7 69 -21.3 -6.3
18:35 1010 29.83 839 24.78 -16.9 1.6 69 -21.3 -6.3
18:40 1009 29.8 839 24.78 -16.9 1.5 70 -21.2 -6.1
18:45 1010 29.83 839 24.78 -17 1.4 70 -21.2 -6.2
18:50 1010 29.83 839 24.78 -17 1.4 71 -21.1 -6
18:55 1010 29.83 839 24.78 -17.1 1.2 72 -21 -5.8
19:00 1009 29.8 839 24.78 -17.1 1.2 72 -21.1 -5.9
19:05 1010 29.83 839 24.78 -17.1 1.2 72 -21 -5.9
19:10 1010 29.83 839 24.78 -17.2 1.1 72 -21 -5.9
19:15 1010 29.83 839 24.78 -17.2 1 73 -21 -5.8
19:20 1010 29.83 839 24.78 -17.3 0.9 73 -21 -5.8
19:25 1010 29.83 839 24.78 -17.3 0.9 73 -21.1 -5.9
19:30 1010 29.83 839 24.78 -17.3 0.9 73 -21 -5.9
19:35 1010 29.83 839 24.78 -17.3 0.8 74 -21 -5.7
19:40 1010 29.83 839 24.78 -17.4 0.7 73 -21.1 -6.1
19:45 1010 29.83 839 24.78 -17.4 0.7 72 -21.3 -6.4
19:50 1010 29.83 839 24.78 -17.4 0.7 72 -21.3 -6.4
19:55 1010 29.83 839 24.78 -17.4 0.6 72 -21.3 -6.4
20:00 1010 29.83 839 24.78 -17.4 0.6 73 -21.3 -6.3
20:05 1010 29.83 839 24.78 -17.5 0.6 72 -21.4 -6.4
20:10 1010 29.83 839 24.78 -17.4 0.6 72 -21.4 -6.5
20:15 1010 29.83 839 24.78 -17.4 0.7 72 -21.3 -6.3
20:20 1010 29.83 839 24.78 -17.4 0.7 71 -21.4 -6.6
20:25 1010 29.83 839 24.78 -17.4 0.7 72 -21.3 -6.4
20:30 1010 29.83 839 24.78 -17.4 0.6 72 -21.4 -6.5
20:35 1010 29.83 839 24.78 -17.4 0.6 73 -21.3 -6.3
20:40 1010 29.83 839 24.78 -17.5 0.5 72 -21.4 -6.6
20:45 1010 29.83 839 24.78 -17.5 0.5 71 -21.6 -6.9
20:50 1010 29.83 839 24.78 -17.5 0.5 70 -21.7 -7.1
20:55 1010 29.83 839 24.78 -17.6 0.4 70 -21.8 -7.3
21:00 1010 29.83 839 24.78 -17.6 0.4 69 -22 -7.5
21:05 1010 29.83 839 24.78 -17.6 0.2 68 -22.2 -7.9
21:10 1010 29.83 839 24.78 -17.7 0.1 68 -22.3 -8.1
21:15 1010 29.83 839 24.78 -17.8 0 68 -22.3 -8.2
21:20 1010 29.83 839 24.78 -17.8 -0 68 -22.3 -8.2
21:25 1010 29.83 839 24.78 -17.8 -0.1 68 -22.4 -8.3
21:30 1010 29.83 839 24.78 -17.9 -0.2 68 -22.5 -8.4
21:35 1010 29.83 839 24.78 -18 -0.3 68 -22.5 -8.5
21:40 1010 29.83 839 24.78 -18 -0.4 68 -22.6 -8.7
21:45 1010 29.83 839 24.78 -18 -0.5 68 -22.6 -8.7
21:50 1010 29.83 839 24.78 -18.1 -0.5 68 -22.6 -8.7
21:55 1010 29.83 839 24.78 -18.1 -0.5 68 -22.6 -8.7
22:00 1010 29.83 839 24.78 -18 -0.5 68 -22.6 -8.6
22:05 1010 29.83 839 24.78 -18.1 -0.5 68 -22.6 -8.7
22:10 1010 29.83 839 24.78 -18.1 -0.5 68 -22.6 -8.7
22:15 1010 29.83 839 24.78 -18 -0.5 68 -22.6 -8.8
22:20 1010 29.83 839 24.78 -18.1 -0.5 68 -22.6 -8.7
22:25 1010 29.83 839 24.78 -18 -0.4 66 -22.8 -9.1
22:30 1010 29.83 839 24.78 -17.9 -0.2 65 -23 -9.4
22:35 1010 29.83 839 24.78 -17.9 -0.1 64 -23.2 -9.8
22:40 1010 29.83 839 24.78 -17.9 -0.1 64 -23.2 -9.7
22:45 1010 29.83 839 24.78 -17.9 -0.3 65 -23.1 -9.5
22:50 1010 29.83 840 24.81 -17.9 -0.2 64 -23.2 -9.7
22:55 1010 29.83 839 24.78 -17.9 -0.2 64 -23.2 -9.7
23:00 1010 29.83 840 24.81 -17.9 -0.2 64 -23.1 -9.6
23:05 1010 29.83 840 24.81 -17.9 -0.2 63 -23.4 -10
23:10 1010 29.83 840 24.81 -17.9 -0.1 63 -23.3 -9.9
23:15 1010 29.83 840 24.81 -17.9 -0.1 64 -23 -9.5
23:20 1010 29.83 840 24.81 -17.9 -0.2 64 -23.1 -9.6
23:25 1011 29.85 840 24.81 -17.9 -0.2 65 -23 -9.3
23:30 1011 29.85 840 24.81 -18 -0.4 67 -22.7 -8.9
23:35 1010 29.83 840 24.81 -18.1 -0.6 68 -22.6 -8.7
23:40 1010 29.83 840 24.81 -18.3 -0.9 70 -22.5 -8.6
23:45 1011 29.85 840 24.81 -18.3 -1 71 -22.3 -8.2
23:50 1011 29.85 840 24.81 -18.4 -1.1 71 -22.4 -8.3
23:55 1010 29.83 840 24.81 -18.5 -1.3 73 -22.2 -8
24:00 1011 29.85 840 24.81 -18.6 -1.4 73 -22.3 -8.1